Hua Heng 167 — BIAK3 — position and weather

sailwx.info

Track history (hours):
 
Tides and Currents Weather Stations Pressure Air Temp Water Temp Dewpoint Dewpoint Depression Visibility Wind Speed Wind Dir Waves Ship Positions

Hua Heng 167

Last reported at 2016-Apr-30 20:13 UTC. Time now 2016-May-02 06:01 UTC.
Position N 37°46' E 122°36'.

Length 189 m; draft 12.9 m.

Type: Cargo ship. MMSI: 413376470.

Date/timePositionNaut miles runAvg speedWind from/ knotsBaromVisibWave heightAir tempDewpointWater temp
2016-Apr-30 20:13N 37°46' E 122°36'18910.7
2016-Apr-30 02:33N 39°55' E 119°40'0 0.1
2016-Apr-30 01:25N 39°55' E 119°40'0 0.0
2016-Apr-30 00:19N 39°55' E 119°40'0 0.0
2016-Apr-29 23:19N 39°55' E 119°40'0 0.0
2016-Apr-29 22:25N 39°55' E 119°40'0 0.0
2016-Apr-29 21:13N 39°55' E 119°40'0 0.0
2016-Apr-29 20:25N 39°55' E 119°40'0 0.0
2016-Apr-29 19:31N 39°55' E 119°40'0 0.0
2016-Apr-29 18:25N 39°55' E 119°40'0 0.0
2016-Apr-29 17:25N 39°55' E 119°40'0 0.0
2016-Apr-29 16:31N 39°55' E 119°40'0 0.0
2016-Apr-29 15:19N 39°55' E 119°40'0 0.0
2016-Apr-29 14:31N 39°55' E 119°40'0 0.0
2016-Apr-29 13:13N 39°55' E 119°40'0 0.0
2016-Apr-29 12:13N 39°55' E 119°40'0 0.0
2016-Apr-29 10:31N 39°55' E 119°40'0 0.0
2016-Apr-29 09:13N 39°55' E 119°40'0 0.0
2016-Apr-29 07:31N 39°55' E 119°40'0 0.0
2016-Apr-29 06:31N 39°55' E 119°40'0 0.0
2016-Apr-29 05:25N 39°55' E 119°40'0 0.0
2016-Apr-29 04:19N 39°55' E 119°40'0 0.0
2016-Apr-29 02:19N 39°55' E 119°40'0 0.0
2016-Apr-29 01:31N 39°55' E 119°40'0 0.0
2016-Apr-29 00:31N 39°55' E 119°40'0 0.0
2016-Apr-28 23:31N 39°55' E 119°40'0 0.0
2016-Apr-28 22:31N 39°55' E 119°40'1 1.3
2016-Apr-28 21:34N 39°54' E 119°41'8 7.9
2016-Apr-28 20:33N 39°46' E 119°40'1 0.2
2016-Apr-28 14:21N 39°45' E 119°39'0 0.1
2016-Apr-28 12:33N 39°45' E 119°39'0 0.1
2016-Apr-28 11:15N 39°46' E 119°39'0 0.0
2016-Apr-28 10:33N 39°46' E 119°39'0 0.0
2016-Apr-28 09:27N 39°46' E 119°39'4 4.1
2016-Apr-28 08:34N 39°42' E 119°40'5713.7
2016-Apr-28 04:22N 38°46' E 119°55'1112.0
2016-Apr-28 03:29N 38°35' E 119°57'1112.1
2016-Apr-28 02:33N 38°24' E 119°60'1212.2
2016-Apr-28 01:33N 38°13' E 120°03'1212.4
2016-Apr-28 00:33N 38°00' E 120°06'1312.8
2016-Apr-27 23:33N 37°48' E 120°09'8 7.5
2016-Apr-27 22:30N 37°41' E 120°13'0 0.0
2016-Apr-27 21:18N 37°41' E 120°13'0 0.0
2016-Apr-27 18:24N 37°41' E 120°13'0 0.0
2016-Apr-27 17:29N 37°41' E 120°13'0 0.0
2016-Apr-27 16:06N 37°41' E 120°13'0 0.0
2016-Apr-27 15:32N 37°41' E 120°13'0 0.0
2016-Apr-27 14:11N 37°41' E 120°13'0 0.0
2016-Apr-27 13:32N 37°41' E 120°13'0 0.0
2016-Apr-27 12:26N 37°41' E 120°13'0 0.0
2016-Apr-27 11:29N 37°41' E 120°13'0 0.0
2016-Apr-27 10:29N 37°41' E 120°13'0 0.0
2016-Apr-27 09:30N 37°41' E 120°13'0 0.0
2016-Apr-27 08:29N 37°41' E 120°13'0 0.0
2016-Apr-27 07:30N 37°41' E 120°13'0 0.0
2016-Apr-27 06:32N 37°41' E 120°13'0 0.0
2016-Apr-27 05:29N 37°41' E 120°13'0 0.0
2016-Apr-27 04:30N 37°41' E 120°13'0 0.0
2016-Apr-27 03:29N 37°41' E 120°13'0 0.0
2016-Apr-27 02:29N 37°41' E 120°13'0 0.0
2016-Apr-27 01:29N 37°41' E 120°13'0 0.0
2016-Apr-27 00:24N 37°41' E 120°13'0 0.0
2016-Apr-26 23:29N 37°41' E 120°13'0 0.0
2016-Apr-26 22:32N 37°41' E 120°13'0 0.0
2016-Apr-26 21:29N 37°41' E 120°13'0 0.0
2016-Apr-26 20:29N 37°41' E 120°13'0 0.0
2016-Apr-26 19:23N 37°41' E 120°13'0 0.0
2016-Apr-26 18:29N 37°41' E 120°13'0 0.0
2016-Apr-26 17:29N 37°41' E 120°13'0 0.0
2016-Apr-26 16:29N 37°41' E 120°13'0 0.0
2016-Apr-26 15:32N 37°41' E 120°13'0 0.0
2016-Apr-26 14:33N 37°41' E 120°13'4 3.5
2016-Apr-26 13:33N 37°43' E 120°10'1110.8
2016-Apr-26 12:34N 37°49' E 119°59'1212.0
2016-Apr-26 11:33N 37°55' E 119°45'1211.8
2016-Apr-26 10:33N 38°01' E 119°33'1111.3
2016-Apr-26 09:34N 38°08' E 119°21'1110.9
2016-Apr-26 08:33N 38°15' E 119°10'1010.3
2016-Apr-26 07:33N 38°21' E 119°00'1310.0
2016-Apr-26 06:17N 38°29' E 118°47'4910.3
2016-Apr-26 01:33N 38°55' E 117°54'8 8.0
2016-Apr-26 00:33N 38°57' E 117°44'0 0.0
2016-Apr-25 23:30N 38°57' E 117°44'0 0.0
2016-Apr-25 22:06N 38°57' E 117°44'0 0.0
2016-Apr-25 21:30N 38°57' E 117°44'0 0.0
2016-Apr-25 20:24N 38°57' E 117°44'0 0.0
2016-Apr-25 19:30N 38°57' E 117°44'0 0.0
2016-Apr-25 18:24N 38°57' E 117°44'0 0.0
2016-Apr-25 17:24N 38°57' E 117°44'0 0.0
2016-Apr-25 16:30N 38°57' E 117°44'0 0.0
2016-Apr-25 15:24N 38°57' E 117°44'0 0.0
2016-Apr-25 14:30N 38°57' E 117°44'0 0.0
2016-Apr-25 13:30N 38°57' E 117°44'0 0.0
2016-Apr-25 12:30N 38°57' E 117°44'0 0.0
2016-Apr-25 11:30N 38°57' E 117°44'0 0.0
2016-Apr-25 10:30N 38°57' E 117°44'0 0.0
2016-Apr-25 09:24N 38°57' E 117°44'0 0.0
2016-Apr-25 07:24N 38°57' E 117°44'0 0.0
2016-Apr-25 05:30N 38°57' E 117°44'0 0.0
2016-Apr-25 04:30N 38°57' E 117°44'0 0.0
2016-Apr-25 03:24N 38°57' E 117°44'0 0.0
2016-Apr-25 02:24N 38°57' E 117°44'0 0.0
2016-Apr-25 00:12N 38°57' E 117°44'0 0.0
2016-Apr-24 12:24N 38°57' E 117°44'0 0.0
2016-Apr-24 11:30N 38°57' E 117°44'0 0.0
2016-Apr-24 10:18N 38°57' E 117°44'0 0.0
2016-Apr-24 09:30N 38°57' E 117°44'0 0.0
2016-Apr-24 07:30N 38°57' E 117°44'2 2.0
2016-Apr-24 06:33N 38°57' E 117°47'15 1.0
2016-Apr-23 14:26N 38°48' E 118°02'0 0.1
2016-Apr-23 13:14N 38°48' E 118°02'0 0.0
2016-Apr-23 12:20N 38°48' E 118°02'0 0.0
2016-Apr-23 11:32N 38°48' E 118°02'35 0.9
2016-Apr-21 22:11N 38°31' E 118°42'1012.0
2016-Apr-21 21:22N 38°27' E 118°53'2312.5
2016-Apr-21 19:33N 38°20' E 119°21'3812.8
2016-Apr-21 16:33N 38°09' E 120°08'1313.0
2016-Apr-21 15:33N 38°05' E 120°24'1313.4
2016-Apr-21 14:33N 38°02' E 120°40'1312.7
2016-Apr-21 13:33N 37°59' E 120°56'1212.5
2016-Apr-21 12:34N 37°56' E 121°11'1211.8
2016-Apr-21 11:32N 37°50' E 121°24'1212.7
2016-Apr-21 10:33N 37°37' E 121°27'  
Track history (hours):
 
Tides and Currents Weather Stations Pressure Air Temp Water Temp Dewpoint Dewpoint Depression Visibility Wind Speed Wind Dir Waves Ship Positions

Hua Heng 167

Last reported at 2016-Apr-30 20:13 UTC. Time now 2016-May-02 06:01 UTC.
Position N 37°46' E 122°36'.

Length 189 m; draft 12.9 m.

Type: Cargo ship. MMSI: 413376470.

Date/timePositionNaut miles runAvg speedWind from/ knotsBaromVisibWave heightAir tempDewpointWater temp
2016-Apr-30 20:13N 37°46' E 122°36'18910.7
2016-Apr-30 02:33N 39°55' E 119°40'0 0.1
2016-Apr-30 01:25N 39°55' E 119°40'0 0.0
2016-Apr-30 00:19N 39°55' E 119°40'0 0.0
2016-Apr-29 23:19N 39°55' E 119°40'0 0.0
2016-Apr-29 22:25N 39°55' E 119°40'0 0.0
2016-Apr-29 21:13N 39°55' E 119°40'0 0.0
2016-Apr-29 20:25N 39°55' E 119°40'0 0.0
2016-Apr-29 19:31N 39°55' E 119°40'0 0.0
2016-Apr-29 18:25N 39°55' E 119°40'0 0.0
2016-Apr-29 17:25N 39°55' E 119°40'0 0.0
2016-Apr-29 16:31N 39°55' E 119°40'0 0.0
2016-Apr-29 15:19N 39°55' E 119°40'0 0.0
2016-Apr-29 14:31N 39°55' E 119°40'0 0.0
2016-Apr-29 13:13N 39°55' E 119°40'0 0.0
2016-Apr-29 12:13N 39°55' E 119°40'0 0.0
2016-Apr-29 10:31N 39°55' E 119°40'0 0.0
2016-Apr-29 09:13N 39°55' E 119°40'0 0.0
2016-Apr-29 07:31N 39°55' E 119°40'0 0.0
2016-Apr-29 06:31N 39°55' E 119°40'0 0.0
2016-Apr-29 05:25N 39°55' E 119°40'0 0.0
2016-Apr-29 04:19N 39°55' E 119°40'0 0.0
2016-Apr-29 02:19N 39°55' E 119°40'0 0.0
2016-Apr-29 01:31N 39°55' E 119°40'0 0.0
2016-Apr-29 00:31N 39°55' E 119°40'0 0.0
2016-Apr-28 23:31N 39°55' E 119°40'0 0.0
2016-Apr-28 22:31N 39°55' E 119°40'1 1.3
2016-Apr-28 21:34N 39°54' E 119°41'8 7.9
2016-Apr-28 20:33N 39°46' E 119°40'1 0.2
2016-Apr-28 14:21N 39°45' E 119°39'0 0.1
2016-Apr-28 12:33N 39°45' E 119°39'0 0.1
2016-Apr-28 11:15N 39°46' E 119°39'0 0.0
2016-Apr-28 10:33N 39°46' E 119°39'0 0.0
2016-Apr-28 09:27N 39°46' E 119°39'4 4.1
2016-Apr-28 08:34N 39°42' E 119°40'5713.7
2016-Apr-28 04:22N 38°46' E 119°55'1112.0
2016-Apr-28 03:29N 38°35' E 119°57'1112.1
2016-Apr-28 02:33N 38°24' E 119°60'1212.2
2016-Apr-28 01:33N 38°13' E 120°03'1212.4
2016-Apr-28 00:33N 38°00' E 120°06'1312.8
2016-Apr-27 23:33N 37°48' E 120°09'8 7.5
2016-Apr-27 22:30N 37°41' E 120°13'0 0.0
2016-Apr-27 21:18N 37°41' E 120°13'0 0.0
2016-Apr-27 18:24N 37°41' E 120°13'0 0.0
2016-Apr-27 17:29N 37°41' E 120°13'0 0.0
2016-Apr-27 16:06N 37°41' E 120°13'0 0.0
2016-Apr-27 15:32N 37°41' E 120°13'0 0.0
2016-Apr-27 14:11N 37°41' E 120°13'0 0.0
2016-Apr-27 13:32N 37°41' E 120°13'0 0.0
2016-Apr-27 12:26N 37°41' E 120°13'0 0.0
2016-Apr-27 11:29N 37°41' E 120°13'0 0.0
2016-Apr-27 10:29N 37°41' E 120°13'0 0.0
2016-Apr-27 09:30N 37°41' E 120°13'0 0.0
2016-Apr-27 08:29N 37°41' E 120°13'0 0.0
2016-Apr-27 07:30N 37°41' E 120°13'0 0.0
2016-Apr-27 06:32N 37°41' E 120°13'0 0.0
2016-Apr-27 05:29N 37°41' E 120°13'0 0.0
2016-Apr-27 04:30N 37°41' E 120°13'0 0.0
2016-Apr-27 03:29N 37°41' E 120°13'0 0.0
2016-Apr-27 02:29N 37°41' E 120°13'0 0.0
2016-Apr-27 01:29N 37°41' E 120°13'0 0.0
2016-Apr-27 00:24N 37°41' E 120°13'0 0.0
2016-Apr-26 23:29N 37°41' E 120°13'0 0.0
2016-Apr-26 22:32N 37°41' E 120°13'0 0.0
2016-Apr-26 21:29N 37°41' E 120°13'0 0.0
2016-Apr-26 20:29N 37°41' E 120°13'0 0.0
2016-Apr-26 19:23N 37°41' E 120°13'0 0.0
2016-Apr-26 18:29N 37°41' E 120°13'0 0.0
2016-Apr-26 17:29N 37°41' E 120°13'0 0.0
2016-Apr-26 16:29N 37°41' E 120°13'0 0.0
2016-Apr-26 15:32N 37°41' E 120°13'0 0.0
2016-Apr-26 14:33N 37°41' E 120°13'4 3.5
2016-Apr-26 13:33N 37°43' E 120°10'1110.8
2016-Apr-26 12:34N 37°49' E 119°59'1212.0
2016-Apr-26 11:33N 37°55' E 119°45'1211.8
2016-Apr-26 10:33N 38°01' E 119°33'1111.3
2016-Apr-26 09:34N 38°08' E 119°21'1110.9
2016-Apr-26 08:33N 38°15' E 119°10'1010.3
2016-Apr-26 07:33N 38°21' E 119°00'1310.0
2016-Apr-26 06:17N 38°29' E 118°47'4910.3
2016-Apr-26 01:33N 38°55' E 117°54'8 8.0
2016-Apr-26 00:33N 38°57' E 117°44'0 0.0
2016-Apr-25 23:30N 38°57' E 117°44'0 0.0
2016-Apr-25 22:06N 38°57' E 117°44'0 0.0
2016-Apr-25 21:30N 38°57' E 117°44'0 0.0
2016-Apr-25 20:24N 38°57' E 117°44'0 0.0
2016-Apr-25 19:30N 38°57' E 117°44'0 0.0
2016-Apr-25 18:24N 38°57' E 117°44'0 0.0
2016-Apr-25 17:24N 38°57' E 117°44'0 0.0
2016-Apr-25 16:30N 38°57' E 117°44'0 0.0
2016-Apr-25 15:24N 38°57' E 117°44'0 0.0
2016-Apr-25 14:30N 38°57' E 117°44'0 0.0
2016-Apr-25 13:30N 38°57' E 117°44'0 0.0
2016-Apr-25 12:30N 38°57' E 117°44'0 0.0
2016-Apr-25 11:30N 38°57' E 117°44'0 0.0
2016-Apr-25 10:30N 38°57' E 117°44'0 0.0
2016-Apr-25 09:24N 38°57' E 117°44'0 0.0
2016-Apr-25 07:24N 38°57' E 117°44'0 0.0
2016-Apr-25 05:30N 38°57' E 117°44'0 0.0
2016-Apr-25 04:30N 38°57' E 117°44'0 0.0
2016-Apr-25 03:24N 38°57' E 117°44'0 0.0
2016-Apr-25 02:24N 38°57' E 117°44'0 0.0
2016-Apr-25 00:12N 38°57' E 117°44'0 0.0
2016-Apr-24 12:24N 38°57' E 117°44'0 0.0
2016-Apr-24 11:30N 38°57' E 117°44'0 0.0
2016-Apr-24 10:18N 38°57' E 117°44'0 0.0
2016-Apr-24 09:30N 38°57' E 117°44'0 0.0
2016-Apr-24 07:30N 38°57' E 117°44'2 2.0
2016-Apr-24 06:33N 38°57' E 117°47'15 1.0
2016-Apr-23 14:26N 38°48' E 118°02'0 0.1
2016-Apr-23 13:14N 38°48' E 118°02'0 0.0
2016-Apr-23 12:20N 38°48' E 118°02'0 0.0
2016-Apr-23 11:32N 38°48' E 118°02'35 0.9
2016-Apr-21 22:11N 38°31' E 118°42'1012.0
2016-Apr-21 21:22N 38°27' E 118°53'2312.5
2016-Apr-21 19:33N 38°20' E 119°21'3812.8
2016-Apr-21 16:33N 38°09' E 120°08'1313.0
2016-Apr-21 15:33N 38°05' E 120°24'1313.4
2016-Apr-21 14:33N 38°02' E 120°40'1312.7
2016-Apr-21 13:33N 37°59' E 120°56'1212.5
2016-Apr-21 12:34N 37°56' E 121°11'1211.8
2016-Apr-21 11:32N 37°50' E 121°24'1212.7
2016-Apr-21 10:33N 37°37' E 121°27'  

Dump ship's entire track history